sensor_id;sensor_type;location;lat;lon;timestamp;P1;durP1;ratioP1;P2;durP2;ratioP2
75512;SDS011;64090;49.770;18.760;2023-06-10T00:02:37;20.00;;;13.70;;
75512;SDS011;64090;49.770;18.760;2023-06-10T00:05:48;17.20;;;12.90;;
75512;SDS011;64090;49.770;18.760;2023-06-10T00:08:51;20.40;;;13.90;;
75512;SDS011;64090;49.770;18.760;2023-06-10T00:11:54;19.70;;;13.60;;
75512;SDS011;64090;49.770;18.760;2023-06-10T00:14:57;18.40;;;13.30;;
75512;SDS011;64090;49.770;18.760;2023-06-10T00:18:01;20.40;;;13.40;;
75512;SDS011;64090;49.770;18.760;2023-06-10T00:21:05;18.40;;;12.50;;
75512;SDS011;64090;49.770;18.760;2023-06-10T00:24:08;15.00;;;11.30;;
75512;SDS011;64090;49.770;18.760;2023-06-10T00:27:38;21.20;;;14.90;;
75512;SDS011;64090;49.770;18.760;2023-06-10T00:30:41;23.80;;;13.80;;
75512;SDS011;64090;49.770;18.760;2023-06-10T00:33:46;20.50;;;14.20;;
75512;SDS011;64090;49.770;18.760;2023-06-10T00:36:49;21.20;;;13.60;;
75512;SDS011;64090;49.770;18.760;2023-06-10T00:40:02;20.20;;;13.60;;
75512;SDS011;64090;49.770;18.760;2023-06-10T00:43:07;25.10;;;16.40;;
75512;SDS011;64090;49.770;18.760;2023-06-10T00:46:11;26.90;;;17.90;;
75512;SDS011;64090;49.770;18.760;2023-06-10T00:49:30;27.50;;;17.70;;
75512;SDS011;64090;49.770;18.760;2023-06-10T00:52:32;21.80;;;13.90;;
75512;SDS011;64090;49.770;18.760;2023-06-10T00:55:38;26.40;;;16.90;;
75512;SDS011;64090;49.770;18.760;2023-06-10T00:58:53;25.90;;;17.10;;
75512;SDS011;64090;49.770;18.760;2023-06-10T01:01:57;26.30;;;17.30;;
75512;SDS011;64090;49.770;18.760;2023-06-10T01:05:00;24.90;;;15.10;;
75512;SDS011;64090;49.770;18.760;2023-06-10T01:11:34;36.60;;;22.30;;
75512;SDS011;64090;49.770;18.760;2023-06-10T01:14:45;36.10;;;22.60;;
75512;SDS011;64090;49.770;18.760;2023-06-10T01:18:04;33.50;;;21.00;;
75512;SDS011;64090;49.770;18.760;2023-06-10T01:21:22;26.50;;;18.50;;
75512;SDS011;64090;49.770;18.760;2023-06-10T01:24:34;33.10;;;20.90;;
75512;SDS011;64090;49.770;18.760;2023-06-10T01:27:40;29.70;;;18.20;;
75512;SDS011;64090;49.770;18.760;2023-06-10T01:31:13;31.20;;;19.80;;
75512;SDS011;64090;49.770;18.760;2023-06-10T01:34:24;33.70;;;20.10;;
75512;SDS011;64090;49.770;18.760;2023-06-10T01:37:29;24.00;;;15.60;;
75512;SDS011;64090;49.770;18.760;2023-06-10T01:40:36;35.50;;;22.80;;
75512;SDS011;64090;49.770;18.760;2023-06-10T01:43:44;29.30;;;18.90;;
75512;SDS011;64090;49.770;18.760;2023-06-10T01:46:50;28.60;;;18.00;;
75512;SDS011;64090;49.770;18.760;2023-06-10T01:49:53;28.20;;;18.60;;
75512;SDS011;64090;49.770;18.760;2023-06-10T01:52:57;32.20;;;19.10;;
75512;SDS011;64090;49.770;18.760;2023-06-10T01:56:02;31.20;;;19.50;;
75512;SDS011;64090;49.770;18.760;2023-06-10T01:59:06;30.10;;;18.80;;
75512;SDS011;64090;49.770;18.760;2023-06-10T02:02:09;26.60;;;17.20;;
75512;SDS011;64090;49.770;18.760;2023-06-10T02:05:12;27.10;;;17.40;;
75512;SDS011;64090;49.770;18.760;2023-06-10T02:08:15;33.00;;;19.80;;
75512;SDS011;64090;49.770;18.760;2023-06-10T02:11:18;38.60;;;24.40;;
75512;SDS011;64090;49.770;18.760;2023-06-10T02:14:21;27.00;;;18.50;;
75512;SDS011;64090;49.770;18.760;2023-06-10T02:17:24;31.00;;;18.10;;
75512;SDS011;64090;49.770;18.760;2023-06-10T02:20:28;39.50;;;23.60;;
75512;SDS011;64090;49.770;18.760;2023-06-10T02:23:30;31.30;;;20.00;;
75512;SDS011;64090;49.770;18.760;2023-06-10T02:26:44;28.70;;;20.20;;
75512;SDS011;64090;49.770;18.760;2023-06-10T02:29:48;34.30;;;21.80;;
75512;SDS011;64090;49.770;18.760;2023-06-10T02:32:52;33.40;;;21.70;;
75512;SDS011;64090;49.770;18.760;2023-06-10T02:35:56;36.00;;;22.80;;
75512;SDS011;64090;49.770;18.760;2023-06-10T02:38:59;37.10;;;22.40;;
75512;SDS011;64090;49.770;18.760;2023-06-10T02:42:02;35.60;;;23.50;;
75512;SDS011;64090;49.770;18.760;2023-06-10T02:45:05;38.50;;;23.30;;
75512;SDS011;64090;49.770;18.760;2023-06-10T02:48:12;34.70;;;22.70;;
75512;SDS011;64090;49.770;18.760;2023-06-10T02:51:15;34.10;;;23.20;;
75512;SDS011;64090;49.770;18.760;2023-06-10T02:54:18;34.70;;;23.10;;
75512;SDS011;64090;49.770;18.760;2023-06-10T02:57:28;30.30;;;20.10;;
75512;SDS011;64090;49.770;18.760;2023-06-10T03:00:31;34.20;;;22.40;;
75512;SDS011;64090;49.770;18.760;2023-06-10T03:03:34;32.20;;;22.90;;
75512;SDS011;64090;49.770;18.760;2023-06-10T03:06:42;36.00;;;24.00;;
75512;SDS011;64090;49.770;18.760;2023-06-10T03:09:48;37.00;;;24.20;;
75512;SDS011;64090;49.770;18.760;2023-06-10T03:12:51;33.30;;;23.60;;
75512;SDS011;64090;49.770;18.760;2023-06-10T03:15:54;32.50;;;21.30;;
75512;SDS011;64090;49.770;18.760;2023-06-10T03:18:57;35.70;;;24.60;;
75512;SDS011;64090;49.770;18.760;2023-06-10T03:22:09;30.80;;;20.90;;
75512;SDS011;64090;49.770;18.760;2023-06-10T03:25:14;33.30;;;22.70;;
75512;SDS011;64090;49.770;18.760;2023-06-10T03:28:18;34.60;;;24.20;;
75512;SDS011;64090;49.770;18.760;2023-06-10T03:31:23;34.70;;;24.60;;
75512;SDS011;64090;49.770;18.760;2023-06-10T03:34:29;40.20;;;25.80;;
75512;SDS011;64090;49.770;18.760;2023-06-10T03:37:32;38.50;;;26.70;;
75512;SDS011;64090;49.770;18.760;2023-06-10T03:40:35;38.50;;;26.00;;
75512;SDS011;64090;49.770;18.760;2023-06-10T03:43:38;42.10;;;28.10;;
75512;SDS011;64090;49.770;18.760;2023-06-10T03:46:59;43.30;;;28.50;;
75512;SDS011;64090;49.770;18.760;2023-06-10T03:50:05;41.40;;;27.10;;
75512;SDS011;64090;49.770;18.760;2023-06-10T03:53:09;40.40;;;28.80;;
75512;SDS011;64090;49.770;18.760;2023-06-10T03:56:12;40.70;;;27.50;;
75512;SDS011;64090;49.770;18.760;2023-06-10T03:59:15;39.70;;;26.80;;
75512;SDS011;64090;49.770;18.760;2023-06-10T04:02:21;43.00;;;28.20;;
75512;SDS011;64090;49.770;18.760;2023-06-10T04:05:25;39.80;;;27.00;;
75512;SDS011;64090;49.770;18.760;2023-06-10T04:08:28;46.40;;;31.80;;
75512;SDS011;64090;49.770;18.760;2023-06-10T04:11:31;43.60;;;30.00;;
75512;SDS011;64090;49.770;18.760;2023-06-10T04:14:37;45.90;;;29.10;;
75512;SDS011;64090;49.770;18.760;2023-06-10T04:17:40;45.50;;;28.70;;
75512;SDS011;64090;49.770;18.760;2023-06-10T04:20:43;45.90;;;29.10;;
75512;SDS011;64090;49.770;18.760;2023-06-10T04:23:47;44.30;;;28.10;;
75512;SDS011;64090;49.770;18.760;2023-06-10T04:26:51;45.30;;;30.20;;
75512;SDS011;64090;49.770;18.760;2023-06-10T04:29:54;40.30;;;29.10;;
75512;SDS011;64090;49.770;18.760;2023-06-10T04:32:57;45.70;;;28.60;;
75512;SDS011;64090;49.770;18.760;2023-06-10T04:36:01;41.60;;;29.40;;
75512;SDS011;64090;49.770;18.760;2023-06-10T04:39:04;45.70;;;30.10;;
75512;SDS011;64090;49.770;18.760;2023-06-10T04:42:08;41.90;;;28.90;;
75512;SDS011;64090;49.770;18.760;2023-06-10T04:45:11;43.20;;;27.90;;
75512;SDS011;64090;49.770;18.760;2023-06-10T04:48:15;41.90;;;27.00;;
75512;SDS011;64090;49.770;18.760;2023-06-10T04:51:19;42.30;;;27.60;;
75512;SDS011;64090;49.770;18.760;2023-06-10T04:54:21;40.50;;;28.50;;
75512;SDS011;64090;49.770;18.760;2023-06-10T04:57:24;39.00;;;27.10;;
75512;SDS011;64090;49.770;18.760;2023-06-10T05:00:32;38.50;;;27.20;;
75512;SDS011;64090;49.770;18.760;2023-06-10T05:03:35;39.30;;;25.90;;
75512;SDS011;64090;49.770;18.760;2023-06-10T05:06:38;39.80;;;25.80;;
75512;SDS011;64090;49.770;18.760;2023-06-10T05:09:41;38.40;;;26.00;;
75512;SDS011;64090;49.770;18.760;2023-06-10T05:12:45;39.70;;;26.70;;
75512;SDS011;64090;49.770;18.760;2023-06-10T05:15:48;36.50;;;25.60;;
75512;SDS011;64090;49.770;18.760;2023-06-10T05:18:51;39.70;;;27.00;;
75512;SDS011;64090;49.770;18.760;2023-06-10T05:21:54;39.40;;;26.20;;
75512;SDS011;64090;49.770;18.760;2023-06-10T05:24:57;37.40;;;25.00;;
75512;SDS011;64090;49.770;18.760;2023-06-10T05:28:00;35.40;;;24.70;;
75512;SDS011;64090;49.770;18.760;2023-06-10T05:31:03;37.20;;;26.30;;
75512;SDS011;64090;49.770;18.760;2023-06-10T05:34:07;34.50;;;25.50;;
75512;SDS011;64090;49.770;18.760;2023-06-10T05:37:10;39.10;;;26.90;;
75512;SDS011;64090;49.770;18.760;2023-06-10T05:40:15;32.20;;;24.00;;
75512;SDS011;64090;49.770;18.760;2023-06-10T05:43:18;32.30;;;25.10;;
75512;SDS011;64090;49.770;18.760;2023-06-10T05:46:21;34.10;;;25.20;;
75512;SDS011;64090;49.770;18.760;2023-06-10T05:49:24;33.60;;;24.40;;
75512;SDS011;64090;49.770;18.760;2023-06-10T05:52:27;27.80;;;21.30;;
75512;SDS011;64090;49.770;18.760;2023-06-10T05:55:29;34.70;;;24.50;;
75512;SDS011;64090;49.770;18.760;2023-06-10T05:58:33;39.60;;;25.50;;
75512;SDS011;64090;49.770;18.760;2023-06-10T06:01:36;29.70;;;21.80;;
75512;SDS011;64090;49.770;18.760;2023-06-10T06:04:38;30.70;;;22.50;;
75512;SDS011;64090;49.770;18.760;2023-06-10T06:07:41;27.30;;;21.50;;
75512;SDS011;64090;49.770;18.760;2023-06-10T06:10:45;23.90;;;19.80;;
75512;SDS011;64090;49.770;18.760;2023-06-10T06:13:48;25.40;;;20.20;;
75512;SDS011;64090;49.770;18.760;2023-06-10T06:16:54;24.10;;;20.80;;
75512;SDS011;64090;49.770;18.760;2023-06-10T06:19:58;21.40;;;17.10;;
75512;SDS011;64090;49.770;18.760;2023-06-10T06:23:01;24.00;;;21.40;;
75512;SDS011;64090;49.770;18.760;2023-06-10T06:26:04;24.50;;;20.70;;
75512;SDS011;64090;49.770;18.760;2023-06-10T06:29:10;26.20;;;22.00;;
75512;SDS011;64090;49.770;18.760;2023-06-10T06:32:13;24.10;;;19.50;;
75512;SDS011;64090;49.770;18.760;2023-06-10T06:35:16;24.70;;;19.50;;
75512;SDS011;64090;49.770;18.760;2023-06-10T06:38:19;23.00;;;18.70;;
75512;SDS011;64090;49.770;18.760;2023-06-10T06:41:21;21.60;;;18.20;;
75512;SDS011;64090;49.770;18.760;2023-06-10T06:44:24;21.90;;;17.70;;
75512;SDS011;64090;49.770;18.760;2023-06-10T06:47:27;21.50;;;18.00;;
75512;SDS011;64090;49.770;18.760;2023-06-10T06:50:31;21.00;;;17.30;;
75512;SDS011;64090;49.770;18.760;2023-06-10T06:53:34;21.30;;;18.60;;
75512;SDS011;64090;49.770;18.760;2023-06-10T06:56:38;19.60;;;16.40;;
75512;SDS011;64090;49.770;18.760;2023-06-10T06:59:41;19.40;;;15.10;;
75512;SDS011;64090;49.770;18.760;2023-06-10T07:02:44;15.60;;;12.40;;
75512;SDS011;64090;49.770;18.760;2023-06-10T07:05:46;17.70;;;14.40;;
75512;SDS011;64090;49.770;18.760;2023-06-10T07:08:49;18.70;;;15.90;;
75512;SDS011;64090;49.770;18.760;2023-06-10T07:11:53;18.50;;;15.50;;
75512;SDS011;64090;49.770;18.760;2023-06-10T07:14:56;17.20;;;15.10;;
75512;SDS011;64090;49.770;18.760;2023-06-10T07:17:59;14.40;;;12.70;;
75512;SDS011;64090;49.770;18.760;2023-06-10T07:21:02;15.50;;;13.30;;
75512;SDS011;64090;49.770;18.760;2023-06-10T07:24:06;15.20;;;13.10;;
75512;SDS011;64090;49.770;18.760;2023-06-10T07:27:09;15.00;;;13.40;;
75512;SDS011;64090;49.770;18.760;2023-06-10T07:30:14;15.80;;;12.50;;
75512;SDS011;64090;49.770;18.760;2023-06-10T07:33:18;15.90;;;13.30;;
75512;SDS011;64090;49.770;18.760;2023-06-10T07:36:22;15.40;;;13.70;;
75512;SDS011;64090;49.770;18.760;2023-06-10T07:39:26;16.90;;;13.70;;
75512;SDS011;64090;49.770;18.760;2023-06-10T07:42:29;17.90;;;13.90;;
75512;SDS011;64090;49.770;18.760;2023-06-10T07:45:33;20.20;;;15.00;;
75512;SDS011;64090;49.770;18.760;2023-06-10T07:48:36;19.90;;;14.40;;
75512;SDS011;64090;49.770;18.760;2023-06-10T07:51:39;17.40;;;14.10;;
75512;SDS011;64090;49.770;18.760;2023-06-10T07:54:42;18.60;;;15.90;;
75512;SDS011;64090;49.770;18.760;2023-06-10T07:57:45;19.50;;;15.80;;
75512;SDS011;64090;49.770;18.760;2023-06-10T08:00:48;16.80;;;13.90;;
75512;SDS011;64090;49.770;18.760;2023-06-10T08:03:51;20.80;;;16.10;;
75512;SDS011;64090;49.770;18.760;2023-06-10T08:06:54;17.40;;;15.50;;
75512;SDS011;64090;49.770;18.760;2023-06-10T08:09:59;18.30;;;16.20;;
75512;SDS011;64090;49.770;18.760;2023-06-10T08:13:02;17.20;;;15.20;;
75512;SDS011;64090;49.770;18.760;2023-06-10T08:16:05;15.80;;;14.10;;
75512;SDS011;64090;49.770;18.760;2023-06-10T08:19:08;15.80;;;13.00;;
75512;SDS011;64090;49.770;18.760;2023-06-10T08:22:11;18.40;;;14.80;;
75512;SDS011;64090;49.770;18.760;2023-06-10T08:25:15;16.70;;;14.60;;
75512;SDS011;64090;49.770;18.760;2023-06-10T08:28:18;17.90;;;16.00;;
75512;SDS011;64090;49.770;18.760;2023-06-10T08:31:20;16.50;;;13.60;;
75512;SDS011;64090;49.770;18.760;2023-06-10T08:34:24;15.50;;;13.40;;
75512;SDS011;64090;49.770;18.760;2023-06-10T08:37:27;16.20;;;13.30;;
75512;SDS011;64090;49.770;18.760;2023-06-10T08:40:30;11.40;;;9.20;;
75512;SDS011;64090;49.770;18.760;2023-06-10T08:43:42;14.80;;;13.20;;
75512;SDS011;64090;49.770;18.760;2023-06-10T08:46:48;14.30;;;12.80;;
75512;SDS011;64090;49.770;18.760;2023-06-10T08:49:56;15.30;;;13.60;;
75512;SDS011;64090;49.770;18.760;2023-06-10T08:53:06;16.30;;;13.00;;
75512;SDS011;64090;49.770;18.760;2023-06-10T08:56:13;14.40;;;12.90;;
75512;SDS011;64090;49.770;18.760;2023-06-10T08:59:20;11.00;;;9.10;;
75512;SDS011;64090;49.770;18.760;2023-06-10T09:02:25;15.10;;;13.50;;
75512;SDS011;64090;49.770;18.760;2023-06-10T09:05:31;16.60;;;13.00;;
75512;SDS011;64090;49.770;18.760;2023-06-10T09:08:36;13.30;;;11.90;;
75512;SDS011;64090;49.770;18.760;2023-06-10T09:11:40;16.00;;;12.60;;
75512;SDS011;64090;49.770;18.760;2023-06-10T09:15:01;12.70;;;11.40;;
75512;SDS011;64090;49.770;18.760;2023-06-10T09:18:07;11.50;;;10.00;;
75512;SDS011;64090;49.770;18.760;2023-06-10T09:21:10;11.40;;;9.60;;
75512;SDS011;64090;49.770;18.760;2023-06-10T09:24:16;11.00;;;8.70;;
75512;SDS011;64090;49.770;18.760;2023-06-10T09:27:19;8.90;;;8.00;;
75512;SDS011;64090;49.770;18.760;2023-06-10T09:30:32;9.10;;;8.20;;
75512;SDS011;64090;49.770;18.760;2023-06-10T09:33:39;7.60;;;6.80;;
75512;SDS011;64090;49.770;18.760;2023-06-10T09:36:42;7.30;;;6.50;;
75512;SDS011;64090;49.770;18.760;2023-06-10T09:40:08;7.30;;;6.60;;
75512;SDS011;64090;49.770;18.760;2023-06-10T09:43:16;8.00;;;7.30;;
75512;SDS011;64090;49.770;18.760;2023-06-10T09:46:19;8.80;;;7.60;;
75512;SDS011;64090;49.770;18.760;2023-06-10T09:49:23;8.40;;;7.60;;
75512;SDS011;64090;49.770;18.760;2023-06-10T09:52:27;7.90;;;7.10;;
75512;SDS011;64090;49.770;18.760;2023-06-10T09:55:33;7.00;;;6.30;;
75512;SDS011;64090;49.770;18.760;2023-06-10T09:58:39;7.40;;;6.70;;
75512;SDS011;64090;49.770;18.760;2023-06-10T10:01:48;7.00;;;6.40;;
75512;SDS011;64090;49.770;18.760;2023-06-10T10:05:04;5.90;;;5.30;;
75512;SDS011;64090;49.770;18.760;2023-06-10T10:08:11;9.80;;;8.20;;
75512;SDS011;64090;49.770;18.760;2023-06-10T10:11:18;9.50;;;7.90;;
75512;SDS011;64090;49.770;18.760;2023-06-10T10:14:25;6.60;;;6.00;;
75512;SDS011;64090;49.770;18.760;2023-06-10T10:17:28;10.30;;;8.50;;
75512;SDS011;64090;49.770;18.760;2023-06-10T10:20:33;11.40;;;10.30;;
75512;SDS011;64090;49.770;18.760;2023-06-10T10:23:45;10.30;;;9.40;;
75512;SDS011;64090;49.770;18.760;2023-06-10T10:26:57;9.70;;;8.60;;
75512;SDS011;64090;49.770;18.760;2023-06-10T10:30:04;9.40;;;8.40;;
75512;SDS011;64090;49.770;18.760;2023-06-10T10:36:24;9.70;;;8.60;;
75512;SDS011;64090;49.770;18.760;2023-06-10T10:39:38;10.50;;;9.40;;
75512;SDS011;64090;49.770;18.760;2023-06-10T10:42:41;8.60;;;7.80;;
75512;SDS011;64090;49.770;18.760;2023-06-10T10:45:58;8.70;;;7.90;;
75512;SDS011;64090;49.770;18.760;2023-06-10T10:49:08;8.20;;;7.40;;
75512;SDS011;64090;49.770;18.760;2023-06-10T10:52:12;8.20;;;7.40;;
75512;SDS011;64090;49.770;18.760;2023-06-10T10:55:15;9.10;;;7.00;;
75512;SDS011;64090;49.770;18.760;2023-06-10T10:58:23;8.30;;;7.30;;
75512;SDS011;64090;49.770;18.760;2023-06-10T11:01:27;7.70;;;6.90;;
75512;SDS011;64090;49.770;18.760;2023-06-10T11:04:46;8.60;;;7.80;;
75512;SDS011;64090;49.770;18.760;2023-06-10T11:07:54;7.80;;;6.90;;
75512;SDS011;64090;49.770;18.760;2023-06-10T11:11:25;8.40;;;7.60;;
75512;SDS011;64090;49.770;18.760;2023-06-10T11:14:35;7.60;;;6.80;;
75512;SDS011;64090;49.770;18.760;2023-06-10T11:24:19;7.70;;;6.60;;
75512;SDS011;64090;49.770;18.760;2023-06-10T11:27:23;7.90;;;6.80;;
75512;SDS011;64090;49.770;18.760;2023-06-10T11:30:34;8.50;;;7.80;;
75512;SDS011;64090;49.770;18.760;2023-06-10T11:33:38;8.40;;;6.70;;
75512;SDS011;64090;49.770;18.760;2023-06-10T11:36:42;7.90;;;7.10;;
75512;SDS011;64090;49.770;18.760;2023-06-10T11:39:53;9.10;;;6.20;;
75512;SDS011;64090;49.770;18.760;2023-06-10T11:42:57;7.70;;;6.90;;
75512;SDS011;64090;49.770;18.760;2023-06-10T11:46:03;7.40;;;6.50;;
75512;SDS011;64090;49.770;18.760;2023-06-10T11:49:06;7.30;;;6.60;;
75512;SDS011;64090;49.770;18.760;2023-06-10T11:52:09;8.90;;;6.60;;
75512;SDS011;64090;49.770;18.760;2023-06-10T11:55:13;7.80;;;7.10;;
75512;SDS011;64090;49.770;18.760;2023-06-10T11:58:17;10.40;;;8.70;;
75512;SDS011;64090;49.770;18.760;2023-06-10T12:01:26;8.80;;;7.90;;
75512;SDS011;64090;49.770;18.760;2023-06-10T12:04:32;8.20;;;6.50;;
75512;SDS011;64090;49.770;18.760;2023-06-10T12:07:35;6.70;;;6.10;;
75512;SDS011;64090;49.770;18.760;2023-06-10T12:10:42;8.80;;;6.50;;
75512;SDS011;64090;49.770;18.760;2023-06-10T12:13:46;8.50;;;7.20;;
75512;SDS011;64090;49.770;18.760;2023-06-10T12:17:01;7.50;;;6.80;;
75512;SDS011;64090;49.770;18.760;2023-06-10T12:20:07;7.30;;;6.60;;
75512;SDS011;64090;49.770;18.760;2023-06-10T12:23:13;7.90;;;6.90;;
75512;SDS011;64090;49.770;18.760;2023-06-10T12:26:17;8.20;;;6.40;;
75512;SDS011;64090;49.770;18.760;2023-06-10T12:29:23;8.00;;;6.00;;
75512;SDS011;64090;49.770;18.760;2023-06-10T12:32:39;9.20;;;5.80;;
75512;SDS011;64090;49.770;18.760;2023-06-10T12:35:48;6.80;;;5.70;;
75512;SDS011;64090;49.770;18.760;2023-06-10T12:39:21;6.00;;;5.30;;
75512;SDS011;64090;49.770;18.760;2023-06-10T12:42:24;6.80;;;5.20;;
75512;SDS011;64090;49.770;18.760;2023-06-10T12:45:28;7.30;;;5.10;;
75512;SDS011;64090;49.770;18.760;2023-06-10T12:52:19;5.50;;;4.30;;
75512;SDS011;64090;49.770;18.760;2023-06-10T12:55:23;5.50;;;4.60;;
75512;SDS011;64090;49.770;18.760;2023-06-10T12:58:27;6.10;;;5.20;;
75512;SDS011;64090;49.770;18.760;2023-06-10T13:01:32;6.40;;;5.30;;
75512;SDS011;64090;49.770;18.760;2023-06-10T13:04:36;6.50;;;5.40;;
75512;SDS011;64090;49.770;18.760;2023-06-10T13:07:40;5.90;;;5.30;;
75512;SDS011;64090;49.770;18.760;2023-06-10T13:10:44;7.40;;;5.60;;
75512;SDS011;64090;49.770;18.760;2023-06-10T13:13:47;6.40;;;5.20;;
75512;SDS011;64090;49.770;18.760;2023-06-10T13:16:51;7.10;;;6.30;;
75512;SDS011;64090;49.770;18.760;2023-06-10T13:20:07;8.00;;;6.00;;
75512;SDS011;64090;49.770;18.760;2023-06-10T13:23:35;8.90;;;6.20;;
75512;SDS011;64090;49.770;18.760;2023-06-10T13:26:51;8.20;;;6.90;;
75512;SDS011;64090;49.770;18.760;2023-06-10T13:30:24;9.20;;;6.80;;
75512;SDS011;64090;49.770;18.760;2023-06-10T13:33:28;9.90;;;7.40;;
75512;SDS011;64090;49.770;18.760;2023-06-10T13:36:31;11.60;;;7.60;;
75512;SDS011;64090;49.770;18.760;2023-06-10T13:39:35;15.20;;;8.60;;
75512;SDS011;64090;49.770;18.760;2023-06-10T13:43:01;14.10;;;8.90;;
75512;SDS011;64090;49.770;18.760;2023-06-10T13:46:05;11.80;;;8.50;;
75512;SDS011;64090;49.770;18.760;2023-06-10T13:50:04;11.90;;;8.00;;
75512;SDS011;64090;49.770;18.760;2023-06-10T13:53:19;9.80;;;7.20;;
75512;SDS011;64090;49.770;18.760;2023-06-10T13:56:23;12.30;;;8.10;;
75512;SDS011;64090;49.770;18.760;2023-06-10T13:59:26;9.90;;;7.60;;
75512;SDS011;64090;49.770;18.760;2023-06-10T14:02:29;9.50;;;7.50;;
75512;SDS011;64090;49.770;18.760;2023-06-10T14:05:34;10.40;;;6.90;;
75512;SDS011;64090;49.770;18.760;2023-06-10T14:08:37;11.10;;;7.40;;
75512;SDS011;64090;49.770;18.760;2023-06-10T14:11:44;11.20;;;7.80;;
75512;SDS011;64090;49.770;18.760;2023-06-10T14:14:47;9.00;;;7.00;;
75512;SDS011;64090;49.770;18.760;2023-06-10T14:17:51;9.10;;;7.20;;
75512;SDS011;64090;49.770;18.760;2023-06-10T14:20:57;6.40;;;5.50;;
75512;SDS011;64090;49.770;18.760;2023-06-10T14:24:00;6.10;;;5.50;;
75512;SDS011;64090;49.770;18.760;2023-06-10T14:27:07;5.40;;;4.50;;
75512;SDS011;64090;49.770;18.760;2023-06-10T14:30:10;5.10;;;4.40;;
75512;SDS011;64090;49.770;18.760;2023-06-10T14:33:13;5.20;;;3.90;;
75512;SDS011;64090;49.770;18.760;2023-06-10T14:36:16;5.30;;;4.60;;
75512;SDS011;64090;49.770;18.760;2023-06-10T14:39:20;5.90;;;4.60;;
75512;SDS011;64090;49.770;18.760;2023-06-10T14:42:23;5.40;;;4.20;;
75512;SDS011;64090;49.770;18.760;2023-06-10T14:45:26;5.30;;;4.80;;
75512;SDS011;64090;49.770;18.760;2023-06-10T14:48:30;4.60;;;3.80;;
75512;SDS011;64090;49.770;18.760;2023-06-10T14:51:33;5.60;;;3.40;;
75512;SDS011;64090;49.770;18.760;2023-06-10T14:54:45;5.00;;;4.20;;
75512;SDS011;64090;49.770;18.760;2023-06-10T14:57:48;5.40;;;3.70;;
75512;SDS011;64090;49.770;18.760;2023-06-10T15:00:51;5.60;;;4.60;;
75512;SDS011;64090;49.770;18.760;2023-06-10T15:03:55;5.30;;;4.20;;
75512;SDS011;64090;49.770;18.760;2023-06-10T15:06:58;5.50;;;3.60;;
75512;SDS011;64090;49.770;18.760;2023-06-10T15:10:01;5.00;;;4.50;;
75512;SDS011;64090;49.770;18.760;2023-06-10T15:13:04;5.10;;;4.00;;
75512;SDS011;64090;49.770;18.760;2023-06-10T15:16:07;5.40;;;3.90;;
75512;SDS011;64090;49.770;18.760;2023-06-10T15:19:10;4.90;;;4.30;;
75512;SDS011;64090;49.770;18.760;2023-06-10T15:22:14;4.00;;;3.50;;
75512;SDS011;64090;49.770;18.760;2023-06-10T15:25:17;4.80;;;3.80;;
75512;SDS011;64090;49.770;18.760;2023-06-10T15:28:33;5.00;;;4.00;;
75512;SDS011;64090;49.770;18.760;2023-06-10T15:31:36;4.20;;;3.60;;
75512;SDS011;64090;49.770;18.760;2023-06-10T15:34:41;4.10;;;3.50;;
75512;SDS011;64090;49.770;18.760;2023-06-10T15:37:44;5.20;;;3.90;;
75512;SDS011;64090;49.770;18.760;2023-06-10T15:40:47;4.90;;;3.70;;
75512;SDS011;64090;49.770;18.760;2023-06-10T15:43:51;4.00;;;3.10;;
75512;SDS011;64090;49.770;18.760;2023-06-10T15:46:54;3.60;;;3.20;;
75512;SDS011;64090;49.770;18.760;2023-06-10T15:49:57;4.30;;;3.60;;
75512;SDS011;64090;49.770;18.760;2023-06-10T15:53:00;4.40;;;3.50;;
75512;SDS011;64090;49.770;18.760;2023-06-10T15:56:03;3.90;;;2.80;;
75512;SDS011;64090;49.770;18.760;2023-06-10T15:59:06;4.40;;;3.60;;
75512;SDS011;64090;49.770;18.760;2023-06-10T16:02:13;4.10;;;3.50;;
75512;SDS011;64090;49.770;18.760;2023-06-10T16:05:16;4.40;;;3.80;;
75512;SDS011;64090;49.770;18.760;2023-06-10T16:08:20;5.20;;;3.80;;
75512;SDS011;64090;49.770;18.760;2023-06-10T16:11:24;4.30;;;3.50;;
75512;SDS011;64090;49.770;18.760;2023-06-10T16:14:31;4.00;;;3.40;;
75512;SDS011;64090;49.770;18.760;2023-06-10T16:17:34;3.90;;;3.50;;
75512;SDS011;64090;49.770;18.760;2023-06-10T16:20:37;4.50;;;3.20;;
75512;SDS011;64090;49.770;18.760;2023-06-10T16:23:40;4.30;;;2.90;;
75512;SDS011;64090;49.770;18.760;2023-06-10T16:26:43;4.00;;;3.20;;
75512;SDS011;64090;49.770;18.760;2023-06-10T16:29:46;3.60;;;3.10;;
75512;SDS011;64090;49.770;18.760;2023-06-10T16:32:49;3.80;;;2.80;;
75512;SDS011;64090;49.770;18.760;2023-06-10T16:35:52;2.90;;;2.20;;
75512;SDS011;64090;49.770;18.760;2023-06-10T16:38:56;3.60;;;2.10;;
75512;SDS011;64090;49.770;18.760;2023-06-10T16:42:03;4.40;;;3.60;;
75512;SDS011;64090;49.770;18.760;2023-06-10T16:45:07;3.10;;;2.20;;
75512;SDS011;64090;49.770;18.760;2023-06-10T16:51:15;4.40;;;2.80;;
75512;SDS011;64090;49.770;18.760;2023-06-10T16:54:19;3.90;;;3.50;;
75512;SDS011;64090;49.770;18.760;2023-06-10T16:57:22;3.60;;;3.20;;
75512;SDS011;64090;49.770;18.760;2023-06-10T17:00:25;3.70;;;2.90;;
75512;SDS011;64090;49.770;18.760;2023-06-10T17:03:28;5.60;;;3.30;;
75512;SDS011;64090;49.770;18.760;2023-06-10T17:06:31;4.70;;;3.30;;
75512;SDS011;64090;49.770;18.760;2023-06-10T17:09:35;4.30;;;3.50;;
75512;SDS011;64090;49.770;18.760;2023-06-10T17:12:39;4.90;;;3.40;;
75512;SDS011;64090;49.770;18.760;2023-06-10T17:15:42;4.70;;;3.80;;
75512;SDS011;64090;49.770;18.760;2023-06-10T17:18:45;4.90;;;3.70;;
75512;SDS011;64090;49.770;18.760;2023-06-10T17:21:49;4.80;;;3.90;;
75512;SDS011;64090;49.770;18.760;2023-06-10T17:24:52;5.40;;;3.40;;
75512;SDS011;64090;49.770;18.760;2023-06-10T17:27:55;5.80;;;3.20;;
75512;SDS011;64090;49.770;18.760;2023-06-10T17:30:57;5.60;;;4.10;;
75512;SDS011;64090;49.770;18.760;2023-06-10T17:34:00;5.70;;;4.10;;
75512;SDS011;64090;49.770;18.760;2023-06-10T17:37:03;5.00;;;3.80;;
75512;SDS011;64090;49.770;18.760;2023-06-10T17:40:07;6.40;;;3.40;;
75512;SDS011;64090;49.770;18.760;2023-06-10T17:43:11;5.80;;;3.70;;
75512;SDS011;64090;49.770;18.760;2023-06-10T17:46:18;4.10;;;3.20;;
75512;SDS011;64090;49.770;18.760;2023-06-10T17:49:21;4.30;;;3.30;;
75512;SDS011;64090;49.770;18.760;2023-06-10T17:52:34;4.00;;;3.50;;
75512;SDS011;64090;49.770;18.760;2023-06-10T17:55:37;4.50;;;3.40;;
75512;SDS011;64090;49.770;18.760;2023-06-10T17:58:40;4.60;;;3.40;;
75512;SDS011;64090;49.770;18.760;2023-06-10T18:01:44;5.00;;;3.50;;
75512;SDS011;64090;49.770;18.760;2023-06-10T18:04:56;4.20;;;3.70;;
75512;SDS011;64090;49.770;18.760;2023-06-10T18:07:59;3.40;;;2.80;;
75512;SDS011;64090;49.770;18.760;2023-06-10T18:11:02;6.10;;;3.90;;
75512;SDS011;64090;49.770;18.760;2023-06-10T18:14:05;4.10;;;2.90;;
75512;SDS011;64090;49.770;18.760;2023-06-10T18:17:08;4.20;;;3.10;;
75512;SDS011;64090;49.770;18.760;2023-06-10T18:20:11;4.50;;;3.70;;
75512;SDS011;64090;49.770;18.760;2023-06-10T18:23:17;5.40;;;4.00;;
75512;SDS011;64090;49.770;18.760;2023-06-10T18:26:21;4.10;;;3.70;;